sensor_id;sensor_type;location;lat;lon;timestamp;pressure;altitude;pressure_sealevel;temperature;humidity
62374;BME280;48409;49.030;1.820;2022-07-23T00:02:24;101024.72;;;23.38;54.08
62374;BME280;48409;49.030;1.820;2022-07-23T00:04:50;101033.78;;;23.37;54.17
62374;BME280;48409;49.030;1.820;2022-07-23T00:07:15;101029.41;;;23.36;54.00
62374;BME280;48409;49.030;1.820;2022-07-23T00:09:40;101031.25;;;23.36;54.15
62374;BME280;48409;49.030;1.820;2022-07-23T00:12:06;101025.00;;;23.35;54.17
62374;BME280;48409;49.030;1.820;2022-07-23T00:14:31;101024.28;;;23.33;54.11
62374;BME280;48409;49.030;1.820;2022-07-23T00:16:57;101022.59;;;23.32;54.11
62374;BME280;48409;49.030;1.820;2022-07-23T00:19:22;101030.66;;;23.32;54.20
62374;BME280;48409;49.030;1.820;2022-07-23T00:21:47;101032.50;;;23.31;54.22
62374;BME280;48409;49.030;1.820;2022-07-23T00:24:13;101028.94;;;23.31;54.21
62374;BME280;48409;49.030;1.820;2022-07-23T00:26:38;101021.88;;;23.30;54.13
62374;BME280;48409;49.030;1.820;2022-07-23T00:29:03;101022.88;;;23.29;54.36
62374;BME280;48409;49.030;1.820;2022-07-23T00:31:29;101022.88;;;23.29;54.37
62374;BME280;48409;49.030;1.820;2022-07-23T00:33:54;101020.47;;;23.26;54.23
62374;BME280;48409;49.030;1.820;2022-07-23T00:36:25;101023.16;;;23.26;54.17
62374;BME280;48409;49.030;1.820;2022-07-23T00:38:50;101026.00;;;23.24;54.30
62374;BME280;48409;49.030;1.820;2022-07-23T00:41:16;101020.78;;;23.23;54.32
62374;BME280;48409;49.030;1.820;2022-07-23T00:43:41;101017.41;;;23.20;54.44
62374;BME280;48409;49.030;1.820;2022-07-23T00:46:07;101017.41;;;23.20;54.36
62374;BME280;48409;49.030;1.820;2022-07-23T00:48:32;101015.72;;;23.19;54.33
62374;BME280;48409;49.030;1.820;2022-07-23T00:50:58;101012.31;;;23.17;54.51
62374;BME280;48409;49.030;1.820;2022-07-23T00:53:23;101015.13;;;23.16;54.44
62374;BME280;48409;49.030;1.820;2022-07-23T00:55:49;101017.00;;;23.15;54.39
62374;BME280;48409;49.030;1.820;2022-07-23T00:58:16;101013.44;;;23.15;54.38
62374;BME280;48409;49.030;1.820;2022-07-23T01:00:41;101011.91;;;23.12;54.40
62374;BME280;48409;49.030;1.820;2022-07-23T01:03:07;101016.59;;;23.10;54.28
62374;BME280;48409;49.030;1.820;2022-07-23T01:05:32;101017.41;;;23.11;54.45
62374;BME280;48409;49.030;1.820;2022-07-23T01:07:58;101020.25;;;23.09;54.36
62374;BME280;48409;49.030;1.820;2022-07-23T01:10:24;101016.16;;;23.05;54.52
62374;BME280;48409;49.030;1.820;2022-07-23T01:13:00;101016.31;;;23.03;54.43
62374;BME280;48409;49.030;1.820;2022-07-23T01:15:26;101015.47;;;23.03;54.45
62374;BME280;48409;49.030;1.820;2022-07-23T01:17:52;101019.16;;;23.02;54.43
62374;BME280;48409;49.030;1.820;2022-07-23T01:20:18;101016.75;;;22.99;54.47
62374;BME280;48409;49.030;1.820;2022-07-23T01:22:44;101010.38;;;23.00;54.34
62374;BME280;48409;49.030;1.820;2022-07-23T01:25:09;101009.69;;;22.98;54.47
62374;BME280;48409;49.030;1.820;2022-07-23T01:27:34;101003.59;;;22.95;54.58
62374;BME280;48409;49.030;1.820;2022-07-23T01:30:00;101002.78;;;22.95;54.50
62374;BME280;48409;49.030;1.820;2022-07-23T01:32:26;101008.97;;;22.95;54.56
62374;BME280;48409;49.030;1.820;2022-07-23T01:34:51;101005.59;;;22.93;54.60
62374;BME280;48409;49.030;1.820;2022-07-23T01:37:17;101000.22;;;22.93;54.63
62374;BME280;48409;49.030;1.820;2022-07-23T01:39:42;100999.38;;;22.93;54.57
62374;BME280;48409;49.030;1.820;2022-07-23T01:42:07;101002.19;;;22.91;54.49
62374;BME280;48409;49.030;1.820;2022-07-23T01:44:33;100996.00;;;22.91;54.73
62374;BME280;48409;49.030;1.820;2022-07-23T01:46:58;101007.56;;;22.91;54.85
62374;BME280;48409;49.030;1.820;2022-07-23T01:49:24;101009.56;;;22.89;54.74
62374;BME280;48409;49.030;1.820;2022-07-23T01:51:49;101002.50;;;22.88;54.44
62374;BME280;48409;49.030;1.820;2022-07-23T01:56:52;101015.22;;;22.86;54.81
62374;BME280;48409;49.030;1.820;2022-07-23T01:59:18;101008.16;;;22.85;54.69
62374;BME280;48409;49.030;1.820;2022-07-23T02:01:43;101004.78;;;22.83;54.53
62374;BME280;48409;49.030;1.820;2022-07-23T02:04:08;101007.59;;;22.81;54.52
62374;BME280;48409;49.030;1.820;2022-07-23T02:06:34;101007.75;;;22.80;54.59
62374;BME280;48409;49.030;1.820;2022-07-23T02:08:59;101006.88;;;22.79;54.74
62374;BME280;48409;49.030;1.820;2022-07-23T02:11:24;101005.06;;;22.80;54.85
62374;BME280;48409;49.030;1.820;2022-07-23T02:13:50;101008.75;;;22.79;54.82
62374;BME280;48409;49.030;1.820;2022-07-23T02:16:15;101009.72;;;22.78;54.63
62374;BME280;48409;49.030;1.820;2022-07-23T02:18:40;101007.03;;;22.78;54.83
62374;BME280;48409;49.030;1.820;2022-07-23T02:21:06;101003.50;;;22.77;54.91
62374;BME280;48409;49.030;1.820;2022-07-23T02:23:31;101010.72;;;22.77;54.85
62374;BME280;48409;49.030;1.820;2022-07-23T02:25:57;101012.56;;;22.76;54.81
62374;BME280;48409;49.030;1.820;2022-07-23T02:28:22;101017.94;;;22.76;54.89
62374;BME280;48409;49.030;1.820;2022-07-23T02:30:47;101026.94;;;22.75;54.86
62374;BME280;48409;49.030;1.820;2022-07-23T02:35:38;101021.72;;;22.74;54.99
62374;BME280;48409;49.030;1.820;2022-07-23T02:38:03;101028.94;;;22.73;55.01
62374;BME280;48409;49.030;1.820;2022-07-23T02:40:29;101031.78;;;22.72;54.73
62374;BME280;48409;49.030;1.820;2022-07-23T02:42:54;101033.59;;;22.71;55.14
62374;BME280;48409;49.030;1.820;2022-07-23T02:45:19;101029.09;;;22.72;55.14
62374;BME280;48409;49.030;1.820;2022-07-23T02:47:45;101032.75;;;22.71;55.04
62374;BME280;48409;49.030;1.820;2022-07-23T02:50:10;101035.44;;;22.71;55.07
62374;BME280;48409;49.030;1.820;2022-07-23T02:52:37;101038.13;;;22.71;55.01
62374;BME280;48409;49.030;1.820;2022-07-23T02:55:02;101044.34;;;22.71;54.94
62374;BME280;48409;49.030;1.820;2022-07-23T02:57:28;101042.66;;;22.70;55.21
62374;BME280;48409;49.030;1.820;2022-07-23T02:59:53;101046.88;;;22.73;55.17
62374;BME280;48409;49.030;1.820;2022-07-23T03:02:19;101055.06;;;22.71;55.19
62374;BME280;48409;49.030;1.820;2022-07-23T03:04:44;101055.94;;;22.72;55.11
62374;BME280;48409;49.030;1.820;2022-07-23T03:07:09;101053.25;;;22.72;55.14
62374;BME280;48409;49.030;1.820;2022-07-23T03:09:35;101059.63;;;22.71;55.29
62374;BME280;48409;49.030;1.820;2022-07-23T03:12:00;101060.44;;;22.71;55.13
62374;BME280;48409;49.030;1.820;2022-07-23T03:14:25;101058.63;;;22.72;55.30
62374;BME280;48409;49.030;1.820;2022-07-23T03:16:52;101059.63;;;22.71;55.34
62374;BME280;48409;49.030;1.820;2022-07-23T03:19:18;101055.94;;;22.72;55.31
62374;BME280;48409;49.030;1.820;2022-07-23T03:21:44;101052.38;;;22.71;55.15
62374;BME280;48409;49.030;1.820;2022-07-23T03:24:09;101055.94;;;22.72;55.19
62374;BME280;48409;49.030;1.820;2022-07-23T03:26:35;101054.94;;;22.73;55.23
62374;BME280;48409;49.030;1.820;2022-07-23T03:29:01;101060.44;;;22.71;55.36
62374;BME280;48409;49.030;1.820;2022-07-23T03:31:29;101061.31;;;22.72;55.37
62374;BME280;48409;49.030;1.820;2022-07-23T03:33:55;101068.34;;;22.73;55.30
62374;BME280;48409;49.030;1.820;2022-07-23T03:36:20;101067.53;;;22.72;55.39
62374;BME280;48409;49.030;1.820;2022-07-23T03:38:46;101072.03;;;22.72;55.33
62374;BME280;48409;49.030;1.820;2022-07-23T03:41:11;101074.59;;;22.73;55.37
62374;BME280;48409;49.030;1.820;2022-07-23T03:43:36;101073.72;;;22.73;55.25
62374;BME280;48409;49.030;1.820;2022-07-23T03:46:02;101063.84;;;22.73;55.46
62374;BME280;48409;49.030;1.820;2022-07-23T03:48:27;101063.97;;;22.72;55.42
62374;BME280;48409;49.030;1.820;2022-07-23T03:50:52;101057.63;;;22.73;55.32
62374;BME280;48409;49.030;1.820;2022-07-23T03:55:43;101063.00;;;22.73;55.57
62374;BME280;48409;49.030;1.820;2022-07-23T03:58:08;101066.41;;;22.75;55.41
62374;BME280;48409;49.030;1.820;2022-07-23T04:00:34;101069.78;;;22.77;55.46
62374;BME280;48409;49.030;1.820;2022-07-23T04:02:59;101058.47;;;22.73;55.50
62374;BME280;48409;49.030;1.820;2022-07-23T04:05:25;101061.84;;;22.75;55.38
62374;BME280;48409;49.030;1.820;2022-07-23T04:07:50;101063.56;;;22.76;55.50
62374;BME280;48409;49.030;1.820;2022-07-23T04:10:16;101063.56;;;22.76;55.56
62374;BME280;48409;49.030;1.820;2022-07-23T04:12:41;101077.81;;;22.77;55.46
62374;BME280;48409;49.030;1.820;2022-07-23T04:15:07;101071.47;;;22.78;55.55
62374;BME280;48409;49.030;1.820;2022-07-23T04:17:33;101073.19;;;22.79;55.60
62374;BME280;48409;49.030;1.820;2022-07-23T04:19:58;101076.81;;;22.78;55.63
62374;BME280;48409;49.030;1.820;2022-07-23T04:22:23;101067.81;;;22.79;55.58
62374;BME280;48409;49.030;1.820;2022-07-23T04:24:49;101072.31;;;22.78;55.52
62374;BME280;48409;49.030;1.820;2022-07-23T04:27:15;101078.53;;;22.79;55.68
62374;BME280;48409;49.030;1.820;2022-07-23T04:29:40;101073.19;;;22.79;55.60
62374;BME280;48409;49.030;1.820;2022-07-23T04:32:06;101080.25;;;22.80;55.66
62374;BME280;48409;49.030;1.820;2022-07-23T04:34:31;101077.56;;;22.80;55.56
62374;BME280;48409;49.030;1.820;2022-07-23T04:36:57;101076.69;;;22.79;55.61
62374;BME280;48409;49.030;1.820;2022-07-23T04:39:22;101076.56;;;22.81;55.61
62374;BME280;48409;49.030;1.820;2022-07-23T04:41:48;101076.56;;;22.81;55.61
62374;BME280;48409;49.030;1.820;2022-07-23T04:44:13;101078.25;;;22.82;55.63
62374;BME280;48409;49.030;1.820;2022-07-23T04:46:39;101072.88;;;22.82;55.57
62374;BME280;48409;49.030;1.820;2022-07-23T04:49:05;101085.34;;;22.83;55.70
62374;BME280;48409;49.030;1.820;2022-07-23T04:51:30;101078.25;;;22.82;55.64
62374;BME280;48409;49.030;1.820;2022-07-23T04:53:55;101084.34;;;22.84;55.83
62374;BME280;48409;49.030;1.820;2022-07-23T04:56:21;101087.03;;;22.84;55.64
62374;BME280;48409;49.030;1.820;2022-07-23T04:58:47;101080.66;;;22.85;55.83
62374;BME280;48409;49.030;1.820;2022-07-23T05:01:12;101089.69;;;22.84;55.91
62374;BME280;48409;49.030;1.820;2022-07-23T05:03:37;101088.72;;;22.85;55.88
62374;BME280;48409;49.030;1.820;2022-07-23T05:06:03;101083.34;;;22.85;55.88
62374;BME280;48409;49.030;1.820;2022-07-23T05:08:28;101086.88;;;22.86;55.93
62374;BME280;48409;49.030;1.820;2022-07-23T05:10:54;101089.56;;;22.86;55.76
62374;BME280;48409;49.030;1.820;2022-07-23T05:13:19;101087.56;;;22.88;55.79
62374;BME280;48409;49.030;1.820;2022-07-23T05:15:45;101085.88;;;22.87;55.91
62374;BME280;48409;49.030;1.820;2022-07-23T05:18:11;101087.56;;;22.88;55.78
62374;BME280;48409;49.030;1.820;2022-07-23T05:20:37;101089.25;;;22.89;55.96
62374;BME280;48409;49.030;1.820;2022-07-23T05:23:02;101083.06;;;22.88;55.88
62374;BME280;48409;49.030;1.820;2022-07-23T05:25:28;101085.59;;;22.90;55.69
62374;BME280;48409;49.030;1.820;2022-07-23T05:27:53;101084.75;;;22.89;55.89
62374;BME280;48409;49.030;1.820;2022-07-23T05:30:19;101081.06;;;22.90;56.05
62374;BME280;48409;49.030;1.820;2022-07-23T05:32:44;101084.47;;;22.92;55.94
62374;BME280;48409;49.030;1.820;2022-07-23T05:35:10;101096.91;;;22.93;55.98
62374;BME280;48409;49.030;1.820;2022-07-23T05:37:35;101102.28;;;22.93;55.98
62374;BME280;48409;49.030;1.820;2022-07-23T05:40:06;101097.75;;;22.94;55.91
62374;BME280;48409;49.030;1.820;2022-07-23T05:42:39;101103.97;;;22.94;55.75
62374;BME280;48409;49.030;1.820;2022-07-23T05:45:06;101109.19;;;22.96;55.96
62374;BME280;48409;49.030;1.820;2022-07-23T05:47:46;101103.69;;;22.98;55.76
62374;BME280;48409;49.030;1.820;2022-07-23T05:50:13;101103.69;;;22.98;56.08
62374;BME280;48409;49.030;1.820;2022-07-23T05:52:39;101108.06;;;22.99;56.02
62374;BME280;48409;49.030;1.820;2022-07-23T05:55:06;101100.00;;;22.99;56.07
62374;BME280;48409;49.030;1.820;2022-07-23T05:57:31;101104.38;;;23.00;56.11
62374;BME280;48409;49.030;1.820;2022-07-23T05:59:57;101102.41;;;23.02;56.22
62374;BME280;48409;49.030;1.820;2022-07-23T06:02:22;101105.78;;;23.04;56.15
62374;BME280;48409;49.030;1.820;2022-07-23T06:04:48;101103.97;;;23.04;55.79
62374;BME280;48409;49.030;1.820;2022-07-23T06:07:13;101117.25;;;23.06;56.13
62374;BME280;48409;49.030;1.820;2022-07-23T06:09:39;101111.56;;;23.09;56.24
62374;BME280;48409;49.030;1.820;2022-07-23T06:12:04;101109.75;;;23.10;56.16
62374;BME280;48409;49.030;1.820;2022-07-23T06:14:30;101114.13;;;23.11;56.20
62374;BME280;48409;49.030;1.820;2022-07-23T06:16:55;101116.66;;;23.12;56.12
62374;BME280;48409;49.030;1.820;2022-07-23T06:19:20;101116.66;;;23.12;55.99
62374;BME280;48409;49.030;1.820;2022-07-23T06:21:46;101111.28;;;23.12;56.06
62374;BME280;48409;49.030;1.820;2022-07-23T06:24:11;101120.06;;;23.14;56.09
62374;BME280;48409;49.030;1.820;2022-07-23T06:26:36;101119.09;;;23.15;56.03
62374;BME280;48409;49.030;1.820;2022-07-23T06:29:02;101112.72;;;23.16;56.27
62374;BME280;48409;49.030;1.820;2022-07-23T06:31:27;101109.03;;;23.17;56.11
62374;BME280;48409;49.030;1.820;2022-07-23T06:33:52;101105.38;;;23.18;56.12
62374;BME280;48409;49.030;1.820;2022-07-23T06:36:18;101103.38;;;23.20;56.18
62374;BME280;48409;49.030;1.820;2022-07-23T06:38:43;101104.22;;;23.21;56.26
62374;BME280;48409;49.030;1.820;2022-07-23T06:41:09;101108.59;;;23.22;56.47
62374;BME280;48409;49.030;1.820;2022-07-23T06:43:34;101107.47;;;23.25;56.21
62374;BME280;48409;49.030;1.820;2022-07-23T06:45:59;101112.69;;;23.26;56.27
62374;BME280;48409;49.030;1.820;2022-07-23T06:48:25;101111.56;;;23.29;56.19
62374;BME280;48409;49.030;1.820;2022-07-23T06:50:50;101116.66;;;23.32;56.43
62374;BME280;48409;49.030;1.820;2022-07-23T06:53:17;101119.19;;;23.33;56.33
62374;BME280;48409;49.030;1.820;2022-07-23T06:55:43;101124.44;;;23.35;56.40
62374;BME280;48409;49.030;1.820;2022-07-23T06:58:08;101116.38;;;23.35;56.32
62374;BME280;48409;49.030;1.820;2022-07-23T07:00:35;101126.84;;;23.38;56.30
62374;BME280;48409;49.030;1.820;2022-07-23T07:03:00;101128.53;;;23.39;56.22
62374;BME280;48409;49.030;1.820;2022-07-23T07:05:26;101131.94;;;23.41;56.15
62374;BME280;48409;49.030;1.820;2022-07-23T07:07:54;101140.69;;;23.43;56.40
62374;BME280;48409;49.030;1.820;2022-07-23T07:10:19;101144.94;;;23.46;56.30
62374;BME280;48409;49.030;1.820;2022-07-23T07:12:47;101139.56;;;23.46;56.24
62374;BME280;48409;49.030;1.820;2022-07-23T07:15:12;101144.78;;;23.47;56.19
62374;BME280;48409;49.030;1.820;2022-07-23T07:17:38;101142.97;;;23.48;56.20
62374;BME280;48409;49.030;1.820;2022-07-23T07:20:05;101148.19;;;23.50;56.30
62374;BME280;48409;49.030;1.820;2022-07-23T07:22:30;101157.94;;;23.51;56.39
62374;BME280;48409;49.030;1.820;2022-07-23T07:24:55;101157.94;;;23.51;56.14
62374;BME280;48409;49.030;1.820;2022-07-23T07:27:21;101162.31;;;23.52;56.13
62374;BME280;48409;49.030;1.820;2022-07-23T07:29:46;101166.69;;;23.53;56.18
62374;BME280;48409;49.030;1.820;2022-07-23T07:32:11;101163.03;;;23.54;56.31
62374;BME280;48409;49.030;1.820;2022-07-23T07:34:37;101166.41;;;23.56;56.33
62374;BME280;48409;49.030;1.820;2022-07-23T07:37:05;101168.09;;;23.57;56.19
62374;BME280;48409;49.030;1.820;2022-07-23T07:39:30;101164.41;;;23.58;56.31
62374;BME280;48409;49.030;1.820;2022-07-23T07:41:56;101163.44;;;23.59;56.32
62374;BME280;48409;49.030;1.820;2022-07-23T07:44:21;101169.50;;;23.61;56.13
62374;BME280;48409;49.030;1.820;2022-07-23T07:46:47;101165.81;;;23.62;56.24
62374;BME280;48409;49.030;1.820;2022-07-23T07:49:12;101181.69;;;23.65;56.37
62374;BME280;48409;49.030;1.820;2022-07-23T07:51:38;101185.22;;;23.66;56.24
62374;BME280;48409;49.030;1.820;2022-07-23T07:54:03;101185.09;;;23.67;56.23
62374;BME280;48409;49.030;1.820;2022-07-23T07:56:28;101187.47;;;23.70;56.22
62374;BME280;48409;49.030;1.820;2022-07-23T07:58:54;101191.00;;;23.71;56.36
62374;BME280;48409;49.030;1.820;2022-07-23T08:01:19;101188.19;;;23.72;56.17
62374;BME280;48409;49.030;1.820;2022-07-23T08:03:45;101197.78;;;23.75;56.31
62374;BME280;48409;49.030;1.820;2022-07-23T08:06:11;101197.66;;;23.77;56.28
62374;BME280;48409;49.030;1.820;2022-07-23T08:08:36;101199.06;;;23.81;56.40
62374;BME280;48409;49.030;1.820;2022-07-23T08:11:02;101205.13;;;23.83;56.49
62374;BME280;48409;49.030;1.820;2022-07-23T08:13:27;101213.91;;;23.85;56.46
62374;BME280;48409;49.030;1.820;2022-07-23T08:15:53;101217.16;;;23.89;56.28
62374;BME280;48409;49.030;1.820;2022-07-23T08:18:19;101207.06;;;23.91;56.34
62374;BME280;48409;49.030;1.820;2022-07-23T08:20:44;101211.31;;;23.93;56.33
62374;BME280;48409;49.030;1.820;2022-07-23T08:23:10;101214.72;;;23.95;56.23
62374;BME280;48409;49.030;1.820;2022-07-23T08:25:42;101214.44;;;23.98;56.20
62374;BME280;48409;49.030;1.820;2022-07-23T08:28:10;101213.56;;;23.98;56.37
62374;BME280;48409;49.030;1.820;2022-07-23T08:30:37;101208.75;;;24.02;56.26
62374;BME280;48409;49.030;1.820;2022-07-23T08:33:07;101215.84;;;24.03;56.19
62374;BME280;48409;49.030;1.820;2022-07-23T08:35:38;101219.22;;;24.05;56.16
62374;BME280;48409;49.030;1.820;2022-07-23T08:38:05;101218.22;;;24.06;56.21
62374;BME280;48409;49.030;1.820;2022-07-23T08:40:34;101230.53;;;24.08;56.18
62374;BME280;48409;49.030;1.820;2022-07-23T08:43:00;101225.03;;;24.10;56.18
62374;BME280;48409;49.030;1.820;2022-07-23T08:45:29;101226.72;;;24.11;56.21
62374;BME280;48409;49.030;1.820;2022-07-23T08:47:57;101226.72;;;24.11;56.28
62374;BME280;48409;49.030;1.820;2022-07-23T08:50:26;101222.06;;;24.13;56.17
62374;BME280;48409;49.030;1.820;2022-07-23T08:52:53;101223.75;;;24.14;56.15
62374;BME280;48409;49.030;1.820;2022-07-23T08:55:20;101232.53;;;24.16;56.20
62374;BME280;48409;49.030;1.820;2022-07-23T08:57:49;101223.44;;;24.17;56.14
62374;BME280;48409;49.030;1.820;2022-07-23T09:00:15;101221.44;;;24.19;56.00
62374;BME280;48409;49.030;1.820;2022-07-23T09:02:42;101227.69;;;24.20;56.06
62374;BME280;48409;49.030;1.820;2022-07-23T09:05:12;101224.00;;;24.21;56.05
62374;BME280;48409;49.030;1.820;2022-07-23T09:11:00;101221.84;;;24.24;55.92
62374;BME280;48409;49.030;1.820;2022-07-23T09:13:46;101224.38;;;24.26;55.63
62374;BME280;48409;49.030;1.820;2022-07-23T09:16:14;101218.88;;;24.28;56.00
62374;BME280;48409;49.030;1.820;2022-07-23T09:18:48;101218.88;;;24.28;56.02
62374;BME280;48409;49.030;1.820;2022-07-23T09:21:27;101216.88;;;24.30;55.84
62374;BME280;48409;49.030;1.820;2022-07-23T09:23:57;101220.28;;;24.32;55.82
62374;BME280;48409;49.030;1.820;2022-07-23T09:26:30;101223.81;;;24.32;55.86
62374;BME280;48409;49.030;1.820;2022-07-23T09:29:17;101219.25;;;24.33;55.77
62374;BME280;48409;49.030;1.820;2022-07-23T09:36:43;101227.72;;;24.38;56.11
62374;BME280;48409;49.030;1.820;2022-07-23T09:39:09;101229.13;;;24.42;56.06
62374;BME280;48409;49.030;1.820;2022-07-23T09:41:46;101229.84;;;24.44;55.70
62374;BME280;48409;49.030;1.820;2022-07-23T09:44:17;101229.56;;;24.47;56.00
62374;BME280;48409;49.030;1.820;2022-07-23T09:46:50;101232.94;;;24.49;55.89
62374;BME280;48409;49.030;1.820;2022-07-23T09:49:21;101237.31;;;24.50;55.83
62374;BME280;48409;49.030;1.820;2022-07-23T09:51:58;101228.09;;;24.53;55.70
62374;BME280;48409;49.030;1.820;2022-07-23T09:54:38;101230.63;;;24.55;55.72
62374;BME280;48409;49.030;1.820;2022-07-23T09:57:06;101226.94;;;24.56;55.61
62374;BME280;48409;49.030;1.820;2022-07-23T09:59:37;101232.31;;;24.56;55.68
62374;BME280;48409;49.030;1.820;2022-07-23T10:02:04;101235.72;;;24.58;55.62
62374;BME280;48409;49.030;1.820;2022-07-23T10:04:31;101236.72;;;24.57;55.63
62374;BME280;48409;49.030;1.820;2022-07-23T10:07:00;101232.88;;;24.59;55.61
62374;BME280;48409;49.030;1.820;2022-07-23T10:09:34;101234.56;;;24.60;55.49
62374;BME280;48409;49.030;1.820;2022-07-23T10:12:03;101240.69;;;24.62;55.80
62374;BME280;48409;49.030;1.820;2022-07-23T10:14:47;101243.03;;;24.66;55.82
62374;BME280;48409;49.030;1.820;2022-07-23T10:17:13;101246.44;;;24.68;55.75
62374;BME280;48409;49.030;1.820;2022-07-23T10:19:39;101240.91;;;24.69;55.83
62374;BME280;48409;49.030;1.820;2022-07-23T10:22:13;101237.91;;;24.72;55.62
62374;BME280;48409;49.030;1.820;2022-07-23T10:24:47;101244.00;;;24.74;55.70
62374;BME280;48409;49.030;1.820;2022-07-23T10:27:43;101248.38;;;24.75;55.48
62374;BME280;48409;49.030;1.820;2022-07-23T10:30:28;101251.75;;;24.77;55.47
62374;BME280;48409;49.030;1.820;2022-07-23T10:36:11;101256.84;;;24.81;55.58
62374;BME280;48409;49.030;1.820;2022-07-23T10:38:54;101260.25;;;24.83;55.53
62374;BME280;48409;49.030;1.820;2022-07-23T10:41:38;101263.66;;;24.85;55.60
62374;BME280;48409;49.030;1.820;2022-07-23T10:44:14;101268.75;;;24.88;55.48
62374;BME280;48409;49.030;1.820;2022-07-23T10:49:30;101264.75;;;24.92;55.71
62374;BME280;48409;49.030;1.820;2022-07-23T10:52:25;101254.53;;;24.96;55.60
62374;BME280;48409;49.030;1.820;2022-07-23T10:54:55;101252.34;;;24.99;55.46
62374;BME280;48409;49.030;1.820;2022-07-23T10:57:27;101254.75;;;25.02;55.64
62374;BME280;48409;49.030;1.820;2022-07-23T11:02:34;101254.13;;;25.09;55.57
62374;BME280;48409;49.030;1.820;2022-07-23T11:07:32;101258.94;;;25.15;55.57
62374;BME280;48409;49.030;1.820;2022-07-23T11:09:58;101256.75;;;25.19;55.50
62374;BME280;48409;49.030;1.820;2022-07-23T11:15:13;101265.94;;;25.26;55.26
62374;BME280;48409;49.030;1.820;2022-07-23T11:17:58;101267.47;;;25.28;55.38
62374;BME280;48409;49.030;1.820;2022-07-23T11:20:25;101269.00;;;25.31;55.28
62374;BME280;48409;49.030;1.820;2022-07-23T11:22:54;101265.16;;;25.34;55.32
62374;BME280;48409;49.030;1.820;2022-07-23T11:27:50;101261.00;;;25.39;55.23
62374;BME280;48409;49.030;1.820;2022-07-23T11:32:55;101255.84;;;25.46;55.01
62374;BME280;48409;49.030;1.820;2022-07-23T11:35:45;101246.59;;;25.49;55.08
62374;BME280;48409;49.030;1.820;2022-07-23T11:38:19;101241.72;;;25.52;55.25
62374;BME280;48409;49.030;1.820;2022-07-23T11:40:53;101249.50;;;25.55;55.17
62374;BME280;48409;49.030;1.820;2022-07-23T11:43:20;101259.00;;;25.60;55.18
62374;BME280;48409;49.030;1.820;2022-07-23T11:45:48;101249.75;;;25.62;55.24
62374;BME280;48409;49.030;1.820;2022-07-23T11:48:19;101254.69;;;25.67;55.14
62374;BME280;48409;49.030;1.820;2022-07-23T11:50:45;101253.34;;;25.71;55.16
62374;BME280;48409;49.030;1.820;2022-07-23T11:53:10;101252.88;;;25.76;55.07
62374;BME280;48409;49.030;1.820;2022-07-23T11:55:35;101254.94;;;25.82;55.06
62374;BME280;48409;49.030;1.820;2022-07-23T11:58:01;101257.16;;;25.87;55.05
62374;BME280;48409;49.030;1.820;2022-07-23T12:00:29;101258.41;;;25.92;55.21
62374;BME280;48409;49.030;1.820;2022-07-23T12:03:00;101255.19;;;25.97;55.20
62374;BME280;48409;49.030;1.820;2022-07-23T12:05:29;101252.91;;;26.02;54.84
62374;BME280;48409;49.030;1.820;2022-07-23T12:07:56;101258.81;;;26.06;54.99
62374;BME280;48409;49.030;1.820;2022-07-23T12:10:26;101260.84;;;26.12;55.05
62374;BME280;48409;49.030;1.820;2022-07-23T12:12:57;101253.97;;;26.18;54.83
62374;BME280;48409;49.030;1.820;2022-07-23T12:15:31;101240.84;;;26.23;55.00
62374;BME280;48409;49.030;1.820;2022-07-23T12:18:01;101248.34;;;26.29;54.74
62374;BME280;48409;49.030;1.820;2022-07-23T12:20:32;101243.28;;;26.35;54.84
62374;BME280;48409;49.030;1.820;2022-07-23T12:23:00;101247.38;;;26.39;54.57
62374;BME280;48409;49.030;1.820;2022-07-23T12:25:29;101239.63;;;26.44;54.44
62374;BME280;48409;49.030;1.820;2022-07-23T12:28:21;101236.59;;;26.47;54.29
62374;BME280;48409;49.030;1.820;2022-07-23T12:30:52;101230.84;;;26.50;54.33
62374;BME280;48409;49.030;1.820;2022-07-23T12:33:31;101231.38;;;26.54;54.36
62374;BME280;48409;49.030;1.820;2022-07-23T12:35:58;101232.91;;;26.56;54.12
62374;BME280;48409;49.030;1.820;2022-07-23T12:38:25;101227.34;;;26.58;54.34
62374;BME280;48409;49.030;1.820;2022-07-23T12:40:53;101227.88;;;26.62;53.97
62374;BME280;48409;49.030;1.820;2022-07-23T12:43:31;101230.25;;;26.65;54.09
62374;BME280;48409;49.030;1.820;2022-07-23T12:46:06;101233.28;;;26.70;54.19
62374;BME280;48409;49.030;1.820;2022-07-23T12:48:39;101223.69;;;26.76;53.96
62374;BME280;48409;49.030;1.820;2022-07-23T12:51:25;101227.56;;;26.81;53.92
62374;BME280;48409;49.030;1.820;2022-07-23T12:54:04;101222.53;;;26.87;53.83
62374;BME280;48409;49.030;1.820;2022-07-23T12:56:35;101217.47;;;26.92;53.78
62374;BME280;48409;49.030;1.820;2022-07-23T13:01:35;101214.81;;;27.00;53.35
62374;BME280;48409;49.030;1.820;2022-07-23T13:04:09;101217.00;;;27.05;53.55
62374;BME280;48409;49.030;1.820;2022-07-23T13:09:16;101213.44;;;27.13;53.55
62374;BME280;48409;49.030;1.820;2022-07-23T13:11:42;101223.94;;;27.16;53.45
62374;BME280;48409;49.030;1.820;2022-07-23T13:14:08;101229.00;;;27.19;53.08
62374;BME280;48409;49.030;1.820;2022-07-23T13:16:34;101217.00;;;27.21;53.22
62374;BME280;48409;49.030;1.820;2022-07-23T13:19:00;101205.00;;;27.24;53.21
62374;BME280;48409;49.030;1.820;2022-07-23T13:21:27;101211.94;;;27.27;53.20
62374;BME280;48409;49.030;1.820;2022-07-23T13:23:53;101218.03;;;27.29;52.84
62374;BME280;48409;49.030;1.820;2022-07-23T13:26:19;101212.28;;;27.32;52.88
62374;BME280;48409;49.030;1.820;2022-07-23T13:28:44;101207.72;;;27.32;52.87
62374;BME280;48409;49.030;1.820;2022-07-23T13:31:10;101209.41;;;27.33;52.65
62374;BME280;48409;49.030;1.820;2022-07-23T13:33:35;101211.09;;;27.34;52.42